Sterling, IL

11:21 PM CDT on March 24, 2017 (GMT -0500)
Polo | | Change Station

Elev 663 ft 41.79 °N, 89.70 °W | Updated 19 minutes ago

Rain
Rain
44.2 °F
Feels Like 42 °F
N
4.0
Wind Variable Wind from NE
Gusts 12.0 mph

Today
High -- | Low -- °F
--% Chance of Precip.
Yesterday
High -- | Low -- °F
Precip. -- in
Pressure 30.07 in
Visibility 6.0 miles
Clouds Few 4100 ft
Scattered Clouds 6000 ft
Windchill 42 °F
Dew Point 41 °F
Humidity 90%
Rainfall 0.07 in
Snow Depth Not available.
6:54 AM 7:15 PM
Waning Crescent, 11% visible
METAR KSQI 250356Z AUTO 10016KT 6SM -RA BR FEW041 SCT060 07/06 A3001 RMK AO2 SLP182 P0000 T00720061
Pressure 30.07 in
Visibility 6.0 miles
Clouds Few 4100 ft
Scattered Clouds 6000 ft
Windchill 42 °F
Dew Point 41 °F
Humidity 90%
Rainfall 0.07 in
Snow Depth Not available.
6:54 AM 7:15 PM
Waning Crescent, 11% visible
METAR KSQI 250356Z AUTO 10016KT 6SM -RA BR FEW041 SCT060 07/06 A3001 RMK AO2 SLP182 P0000 T00720061

Get Severe Weather Alerts

Thanks for signing up!

Be on the lookout for a verification email in your inbox.

You'll start receiving the daily forecast at 8 AM.

×

10-Day Weather Forecast

Almanac

Astronomy

Mar. 24, 2017 Rise Set
Actual Time
Civil Twilight
Nautical Twilight
Astronomical Twilight
Moon
Length of Visible Light
Length of Day
Tomorrow will be .
, % of the Moon is Illuminated

Today's Extremes

State Highs State Lows

Community

WunderPhotos

Upload Photos

1,962,540 photos uploaded!

WunderBlog® & News

Nearby

Air Quality

  Air Quality AQ Index Pollutant
Not available.

Snow Depth

Station Depth Elevation

Earthquake Activity

City Distance Mag. Time & Date
Minimum magnitude displayed is 2.5.

Earthquake Activity

City Distance Mag. Time & Date
Minimum magnitude displayed is 2.5.

Coastal Water Temperatures

Place Temperature

Stations

Nearby Weather Stations

Station Location Temp. Windchill Dew Point Humidity Wind Precip. Elev Updated Type
                   

Watches & Warnings

There are currently no watches in effect.